createdAt,value
2019-02-22T00:00:33.515Z,7.41
2019-02-22T00:03:00.914Z,7.42
2019-02-22T00:05:28.330Z,7.35
2019-02-22T00:07:56.613Z,7.30
2019-02-22T00:10:24.065Z,7.34
2019-02-22T00:12:51.491Z,7.36
2019-02-22T00:15:18.888Z,7.38
2019-02-22T00:17:46.348Z,7.34
2019-02-22T00:20:13.775Z,7.38
2019-02-22T00:22:41.193Z,7.35
2019-02-22T00:25:08.632Z,7.34
2019-02-22T00:27:36.039Z,7.38
2019-02-22T00:30:03.431Z,7.35
2019-02-22T00:32:30.889Z,7.30
2019-02-22T00:34:58.330Z,7.24
2019-02-22T00:37:25.727Z,7.19
2019-02-22T00:39:53.157Z,7.21
2019-02-22T00:42:20.571Z,7.15
2019-02-22T00:44:48.039Z,7.18
2019-02-22T00:47:15.438Z,7.16
2019-02-22T00:49:42.844Z,7.15
2019-02-22T00:52:10.242Z,7.11
2019-02-22T00:54:37.676Z,7.08
2019-02-22T00:57:05.065Z,7.02
2019-02-22T00:59:32.481Z,6.86
2019-02-22T01:02:00.046Z,6.76
2019-02-22T01:04:27.437Z,6.75
2019-02-22T01:06:54.874Z,6.77
2019-02-22T01:09:22.288Z,6.64
2019-02-22T01:11:49.691Z,6.64
2019-02-22T01:14:17.128Z,6.71
2019-02-22T01:16:44.547Z,6.70
2019-02-22T01:19:11.935Z,6.73
2019-02-22T01:21:39.339Z,6.70
2019-02-22T01:24:06.747Z,6.69
2019-02-22T01:26:34.169Z,6.67
2019-02-22T01:29:01.557Z,6.65
2019-02-22T01:31:28.940Z,6.61
2019-02-22T01:33:56.787Z,6.58
2019-02-22T01:36:24.202Z,6.44
2019-02-22T01:38:51.615Z,6.45
2019-02-22T01:41:19.044Z,6.38
2019-02-22T01:43:46.598Z,6.41
2019-02-22T01:46:14.066Z,6.45
2019-02-22T01:48:41.468Z,6.48
2019-02-22T01:51:08.867Z,6.46
2019-02-22T01:53:36.267Z,6.41
2019-02-22T01:56:03.677Z,6.36
2019-02-22T01:58:31.099Z,6.34
2019-02-22T02:00:58.490Z,6.32
2019-02-22T02:03:25.964Z,6.30
2019-02-22T02:05:53.380Z,6.35
2019-02-22T02:08:20.975Z,6.40
2019-02-22T02:10:54.075Z,6.38
2019-02-22T02:13:15.905Z,6.33
2019-02-22T02:15:43.308Z,6.30
2019-02-22T02:18:10.713Z,6.33
2019-02-22T02:20:38.127Z,6.28
2019-02-22T02:23:05.534Z,6.33
2019-02-22T02:25:32.940Z,6.33
2019-02-22T02:28:00.349Z,6.38
2019-02-22T02:30:27.760Z,6.38
2019-02-22T02:32:55.148Z,6.34
2019-02-22T02:35:22.538Z,6.29
2019-02-22T02:37:49.943Z,6.23
2019-02-22T02:40:17.336Z,6.26
2019-02-22T02:42:44.775Z,6.33
2019-02-22T02:45:12.236Z,6.34
2019-02-22T02:47:39.697Z,6.26
2019-02-22T02:50:07.104Z,6.21
2019-02-22T02:52:34.502Z,6.17
2019-02-22T02:55:02.062Z,6.21
2019-02-22T02:57:29.529Z,6.18
2019-02-22T02:59:56.980Z,6.15
2019-02-22T03:02:24.397Z,6.11
2019-02-22T03:04:51.810Z,6.07
2019-02-22T03:07:24.892Z,6.08
2019-02-22T03:09:52.304Z,6.09
2019-02-22T03:12:19.795Z,6.03
2019-02-22T03:14:47.243Z,6.03
2019-02-22T03:17:14.614Z,6.03
2019-02-22T03:19:42.048Z,6.04
2019-02-22T03:22:09.456Z,6.06
2019-02-22T03:24:36.921Z,5.98
2019-02-22T03:27:04.278Z,5.95
2019-02-22T03:29:31.682Z,5.94
2019-02-22T03:31:59.247Z,5.87
2019-02-22T03:34:26.636Z,5.79
2019-02-22T03:36:54.050Z,5.75
2019-02-22T03:39:21.512Z,5.80
2019-02-22T03:41:49.069Z,5.86
2019-02-22T03:44:16.507Z,5.90
2019-02-22T03:46:43.907Z,5.90
2019-02-22T03:49:11.316Z,5.85
2019-02-22T03:51:38.737Z,5.86
2019-02-22T03:54:06.136Z,5.82
2019-02-22T03:56:33.548Z,5.85
2019-02-22T03:59:01.242Z,5.82
2019-02-22T04:01:28.646Z,5.80
2019-02-22T04:03:56.041Z,5.71
2019-02-22T04:06:23.444Z,5.69
2019-02-22T04:08:50.860Z,5.73
2019-02-22T04:11:18.377Z,5.72
2019-02-22T04:13:45.790Z,5.69
2019-02-22T04:16:13.202Z,5.69
2019-02-22T04:18:40.606Z,5.61
2019-02-22T04:21:08.008Z,5.58
2019-02-22T04:23:35.403Z,5.55
2019-02-22T04:26:02.826Z,5.53
2019-02-22T04:28:30.247Z,5.49
2019-02-22T04:30:57.655Z,5.48
2019-02-22T04:33:25.064Z,5.41
2019-02-22T04:35:52.469Z,5.34
2019-02-22T04:38:19.943Z,5.33
2019-02-22T04:40:47.341Z,5.33
2019-02-22T04:43:14.747Z,5.38
2019-02-22T04:45:42.345Z,5.40
2019-02-22T04:48:09.745Z,5.41
2019-02-22T04:50:37.138Z,5.39
2019-02-22T04:53:04.547Z,5.42
2019-02-22T04:55:31.969Z,5.45
2019-02-22T04:57:59.941Z,5.38
2019-02-22T05:00:27.351Z,5.39
2019-02-22T05:02:54.747Z,5.34
2019-02-22T05:05:22.259Z,5.14
2019-02-22T05:07:49.706Z,5.05
2019-02-22T05:10:17.112Z,5.05
2019-02-22T05:12:44.510Z,5.09
2019-02-22T05:15:13.078Z,5.09
2019-02-22T05:17:39.337Z,5.07
2019-02-22T05:20:06.725Z,5.10
2019-02-22T05:22:34.135Z,5.14
2019-02-22T05:25:01.550Z,5.05
2019-02-22T05:27:29.127Z,5.03
2019-02-22T05:29:56.676Z,5.05
2019-02-22T05:32:24.069Z,5.02
2019-02-22T05:34:51.467Z,4.97
2019-02-22T05:37:18.951Z,4.95
2019-02-22T05:39:46.346Z,4.98
2019-02-22T05:42:22.607Z,4.88
2019-02-22T05:44:41.201Z,4.85
2019-02-22T05:47:08.598Z,4.86
2019-02-22T05:49:36.012Z,4.92
2019-02-22T05:52:03.419Z,5.02
2019-02-22T05:54:30.814Z,5.05
2019-02-22T05:56:58.292Z,4.92
2019-02-22T05:59:25.727Z,4.96
2019-02-22T06:01:53.246Z,4.98
2019-02-22T06:04:20.644Z,5.02
2019-02-22T06:06:48.115Z,4.96
2019-02-22T06:09:15.699Z,4.91
2019-02-22T06:11:43.120Z,4.91
2019-02-22T06:14:10.524Z,4.95
2019-02-22T06:16:37.924Z,4.88
2019-02-22T06:19:05.349Z,4.91
2019-02-22T06:21:32.775Z,4.98
2019-02-22T06:24:02.751Z,5.02
2019-02-22T06:26:30.336Z,5.05
2019-02-22T06:28:55.017Z,4.99
2019-02-22T06:31:22.415Z,5.03
2019-02-22T06:33:49.858Z,4.99
2019-02-22T06:36:17.294Z,4.98
2019-02-22T06:38:46.731Z,4.94
2019-02-22T06:41:12.396Z,4.98
2019-02-22T06:43:39.800Z,5.00
2019-02-22T06:46:07.948Z,5.10
2019-02-22T06:48:35.378Z,5.10
2019-02-22T06:51:02.798Z,5.29
2019-02-22T06:53:30.277Z,5.54
2019-02-22T06:55:57.717Z,5.76
2019-02-22T06:58:25.463Z,5.90
2019-02-22T07:00:52.913Z,6.00
2019-02-22T07:03:20.561Z,6.06
2019-02-22T07:05:48.084Z,6.17
2019-02-22T07:08:15.400Z,6.46
2019-02-22T07:11:03.631Z,6.72
2019-02-22T07:13:31.049Z,6.97
2019-02-22T07:15:58.463Z,7.14
2019-02-22T07:18:25.878Z,7.32
2019-02-22T07:20:53.460Z,7.48
2019-02-22T07:23:20.875Z,7.70
2019-02-22T07:25:48.280Z,7.91
2019-02-22T07:28:15.689Z,8.19
2019-02-22T07:30:43.122Z,8.46
2019-02-22T07:33:10.664Z,8.74
2019-02-22T07:35:38.102Z,9.14
2019-02-22T07:38:05.528Z,9.53
2019-02-22T07:40:32.963Z,9.98
2019-02-22T07:43:07.750Z,10.41
2019-02-22T07:45:27.913Z,10.69
2019-02-22T07:47:55.328Z,11.05
2019-02-22T07:50:22.752Z,10.95
2019-02-22T07:52:50.242Z,10.69
2019-02-22T07:55:17.678Z,10.89
2019-02-22T07:57:45.079Z,11.35
2019-02-22T08:00:13.349Z,11.51
2019-02-22T08:02:40.757Z,11.44
2019-02-22T08:05:09.213Z,11.52
2019-02-22T08:07:35.602Z,11.51
2019-02-22T08:10:03.065Z,11.52
2019-02-22T08:12:30.492Z,11.56
2019-02-22T08:14:58.220Z,11.38
2019-02-22T08:17:25.653Z,11.20
2019-02-22T08:19:53.356Z,11.33
2019-02-22T08:22:20.907Z,11.42
2019-02-22T08:24:48.274Z,11.40
2019-02-22T08:27:15.242Z,11.51
2019-02-22T08:29:42.206Z,11.75
2019-02-22T08:32:09.155Z,11.95
2019-02-22T08:34:36.125Z,12.22
2019-02-22T08:37:03.158Z,12.57
2019-02-22T08:39:30.118Z,12.57
2019-02-22T08:41:57.253Z,12.83
2019-02-22T08:44:24.236Z,13.11
2019-02-22T08:46:51.715Z,13.38
2019-02-22T08:49:19.157Z,13.60
2019-02-22T08:51:47.028Z,13.73
2019-02-22T08:54:14.123Z,13.99
2019-02-22T08:56:41.620Z,13.93
2019-02-22T08:59:09.513Z,13.85
2019-02-22T09:01:37.065Z,13.93
2019-02-22T09:04:04.526Z,14.05
2019-02-22T09:06:31.976Z,14.34
2019-02-22T09:08:59.640Z,14.61
2019-02-22T09:11:27.158Z,14.56
2019-02-22T09:13:54.637Z,14.53
2019-02-22T09:16:22.051Z,14.47
2019-02-22T09:18:49.519Z,14.19
2019-02-22T09:21:16.937Z,13.81
2019-02-22T09:23:44.360Z,13.74
2019-02-22T09:26:11.867Z,13.68
2019-02-22T09:28:39.282Z,13.94
2019-02-22T09:31:06.697Z,14.08
2019-02-22T09:33:34.097Z,13.98
2019-02-22T09:36:01.524Z,13.77
2019-02-22T09:38:28.935Z,13.72
2019-02-22T09:40:56.351Z,13.94
2019-02-22T09:43:23.788Z,14.08
2019-02-22T09:45:51.203Z,14.36
2019-02-22T09:48:18.729Z,14.15
2019-02-22T09:50:46.149Z,14.02
2019-02-22T09:53:13.551Z,14.03
2019-02-22T09:55:40.996Z,14.15
2019-02-22T09:58:08.472Z,14.20
2019-02-22T10:00:35.975Z,14.33
2019-02-22T10:03:03.368Z,14.58
2019-02-22T10:05:30.849Z,14.91
2019-02-22T10:07:58.362Z,15.22
2019-02-22T10:10:25.478Z,15.40
2019-02-22T10:12:52.950Z,15.56
2019-02-22T10:15:20.384Z,15.35
2019-02-22T10:17:48.072Z,15.52
2019-02-22T10:20:15.262Z,15.74
2019-02-22T10:22:42.755Z,15.99
2019-02-22T10:25:10.173Z,16.17
2019-02-22T10:27:37.575Z,16.37
2019-02-22T10:30:05.131Z,16.70
2019-02-22T10:32:32.176Z,16.94
2019-02-22T10:34:59.629Z,17.11
2019-02-22T10:37:27.157Z,16.96
2019-02-22T10:39:54.657Z,17.28
2019-02-22T10:42:22.096Z,17.74
2019-02-22T10:44:49.037Z,18.20
2019-02-22T10:47:16.455Z,18.18
2019-02-22T10:49:43.961Z,18.17
2019-02-22T10:52:11.368Z,18.45
2019-02-22T10:54:38.876Z,18.67
2019-02-22T10:57:06.304Z,18.89
2019-02-22T10:59:33.739Z,19.18
2019-02-22T11:02:01.152Z,19.30
2019-02-22T11:04:28.731Z,19.44
2019-02-22T11:06:56.192Z,19.51
2019-02-22T11:09:23.213Z,19.90
2019-02-22T11:11:50.230Z,20.11
2019-02-22T11:14:17.252Z,20.16
2019-02-22T11:16:44.246Z,20.40
2019-02-22T11:19:11.188Z,20.60
2019-02-22T11:21:38.153Z,20.77
2019-02-22T11:24:05.171Z,20.61
2019-02-22T11:26:32.094Z,20.83
2019-02-22T11:28:59.050Z,21.29
2019-02-22T11:31:25.997Z,21.51
2019-02-22T11:33:52.965Z,21.45
2019-02-22T11:36:20.042Z,21.79
2019-02-22T11:38:47.076Z,22.01
2019-02-22T11:41:14.448Z,22.39
2019-02-22T11:43:41.897Z,22.89
2019-02-22T11:46:09.339Z,23.26
2019-02-22T11:48:36.814Z,23.24
2019-02-22T11:51:05.170Z,23.24
2019-02-22T11:53:32.641Z,23.59
2019-02-22T11:56:00.047Z,23.98
2019-02-22T11:58:27.476Z,24.32
2019-02-22T12:00:55.007Z,24.66
2019-02-22T12:03:24.975Z,24.58
2019-02-22T12:05:50.047Z,24.60
2019-02-22T12:08:17.486Z,25.13
2019-02-22T12:10:44.875Z,25.96
2019-02-22T12:13:12.401Z,26.51
2019-02-22T12:15:39.871Z,26.77
2019-02-22T12:18:07.311Z,27.04
2019-02-22T12:20:34.762Z,27.31
2019-02-22T12:23:01.889Z,27.78
2019-02-22T12:25:29.294Z,27.97
2019-02-22T12:27:56.947Z,28.12
2019-02-22T12:30:25.682Z,27.65
2019-02-22T12:32:51.795Z,27.14
2019-02-22T12:35:19.237Z,27.52
2019-02-22T12:37:46.864Z,28.14
2019-02-22T12:40:13.821Z,28.82
2019-02-22T12:42:40.975Z,29.22
2019-02-22T12:45:07.926Z,28.99
2019-02-22T12:47:34.870Z,28.63
2019-02-22T12:50:01.841Z,29.27
2019-02-22T12:52:28.795Z,29.09
2019-02-22T12:54:55.807Z,28.34
2019-02-22T12:57:23.224Z,28.44
2019-02-22T12:59:50.754Z,28.97
2019-02-22T13:02:18.314Z,29.41
2019-02-22T13:04:45.221Z,30.16
2019-02-22T13:07:12.164Z,30.72
2019-02-22T13:09:39.156Z,31.04
2019-02-22T13:12:13.656Z,30.90
2019-02-22T13:14:33.110Z,31.09
2019-02-22T13:17:00.111Z,31.14
2019-02-22T13:19:27.073Z,30.99
2019-02-22T13:21:54.660Z,31.04
2019-02-22T13:24:22.069Z,31.42
2019-02-22T13:26:49.506Z,31.70
2019-02-22T13:29:16.922Z,31.93
2019-02-22T13:31:44.345Z,31.00
2019-02-22T13:34:11.762Z,30.44
2019-02-22T13:36:39.520Z,30.86
2019-02-22T13:39:06.922Z,29.92
2019-02-22T13:41:34.360Z,28.60
2019-02-22T13:44:01.775Z,28.44
2019-02-22T13:46:29.201Z,30.04
2019-02-22T13:48:56.596Z,32.26
2019-02-22T13:51:24.018Z,33.52
2019-02-22T13:53:51.499Z,34.69
2019-02-22T13:56:29.141Z,35.24
2019-02-22T13:58:46.027Z,35.75
2019-02-22T14:01:12.936Z,35.76
2019-02-22T14:03:39.929Z,35.24
2019-02-22T14:06:06.924Z,32.32
2019-02-22T14:08:33.893Z,34.50
2019-02-22T14:11:00.833Z,35.50
2019-02-22T14:13:27.835Z,36.58
2019-02-22T14:15:54.823Z,37.10
2019-02-22T14:18:21.769Z,37.25
2019-02-22T14:20:48.735Z,37.60
2019-02-22T14:23:15.703Z,37.28
2019-02-22T14:25:42.660Z,37.92
2019-02-22T14:28:12.070Z,38.63
2019-02-22T14:30:37.035Z,39.15
2019-02-22T14:33:04.570Z,39.24
2019-02-22T14:35:31.984Z,39.39
2019-02-22T14:37:59.444Z,39.67
2019-02-22T14:40:26.334Z,39.91
2019-02-22T14:42:53.305Z,40.05
2019-02-22T14:45:20.813Z,40.66
2019-02-22T14:47:48.279Z,40.98
2019-02-22T14:50:15.711Z,40.63
2019-02-22T14:52:43.142Z,41.17
2019-02-22T14:55:11.135Z,41.43
2019-02-22T14:57:39.454Z,41.49
2019-02-22T15:00:07.675Z,41.60
2019-02-22T15:02:35.196Z,41.79
2019-02-22T15:05:02.643Z,41.93
2019-02-22T15:07:31.317Z,41.53
2019-02-22T15:09:59.106Z,41.29
2019-02-22T15:12:26.167Z,41.97
2019-02-22T15:14:53.626Z,41.86
2019-02-22T15:17:21.434Z,41.72
2019-02-22T15:19:48.863Z,42.05
2019-02-22T15:22:16.294Z,42.07
2019-02-22T15:24:43.944Z,41.52
2019-02-22T15:27:11.611Z,41.49
2019-02-22T15:29:39.019Z,41.59
2019-02-22T15:32:06.605Z,41.72
2019-02-22T15:34:34.081Z,41.97
2019-02-22T15:37:01.712Z,41.88
2019-02-22T15:39:29.182Z,41.95
2019-02-22T15:41:56.675Z,41.55
2019-02-22T15:44:24.189Z,41.69
2019-02-22T15:46:51.584Z,41.05
2019-02-22T15:49:19.013Z,40.71
2019-02-22T15:51:46.462Z,40.32
2019-02-22T15:54:13.855Z,40.86
2019-02-22T15:56:41.661Z,40.54
2019-02-22T15:59:09.134Z,39.51
2019-02-22T16:01:36.617Z,39.04
2019-02-22T16:04:04.118Z,38.81
2019-02-22T16:06:32.412Z,38.68
2019-02-22T16:08:58.955Z,38.77
2019-02-22T16:11:26.541Z,38.81
2019-02-22T16:13:53.989Z,38.84
2019-02-22T16:16:23.517Z,38.16
2019-02-22T16:18:48.936Z,37.45
2019-02-22T16:21:16.355Z,37.00
2019-02-22T16:23:44.050Z,36.54
2019-02-22T16:26:11.490Z,36.20
2019-02-22T16:28:38.950Z,35.37
2019-02-22T16:31:06.390Z,34.72
2019-02-22T16:33:33.812Z,34.17
2019-02-22T16:36:01.244Z,32.83
2019-02-22T16:38:28.700Z,31.77
2019-02-22T16:40:56.127Z,31.01
2019-02-22T16:43:23.532Z,30.20
2019-02-22T16:45:51.029Z,28.82
2019-02-22T16:48:18.460Z,26.00
2019-02-22T16:50:45.858Z,22.78
2019-02-22T16:53:13.432Z,20.93
2019-02-22T16:55:40.831Z,19.87
2019-02-22T16:58:08.443Z,19.13
2019-02-22T17:00:35.911Z,18.64
2019-02-22T17:03:03.348Z,18.16
2019-02-22T17:05:30.818Z,17.92
2019-02-22T17:07:58.230Z,17.67
2019-02-22T17:10:25.680Z,17.45
2019-02-22T17:12:53.100Z,17.06
2019-02-22T17:15:20.533Z,16.84
2019-02-22T17:17:48.072Z,16.51
2019-02-22T17:20:15.564Z,16.37
2019-02-22T17:22:43.134Z,15.75
2019-02-22T17:25:15.944Z,15.19
2019-02-22T17:27:43.562Z,14.64
2019-02-22T17:30:13.795Z,14.29
2019-02-22T17:32:41.215Z,14.05
2019-02-22T17:35:08.705Z,13.89
2019-02-22T17:37:36.151Z,13.72
2019-02-22T17:40:03.605Z,13.53
2019-02-22T17:42:31.019Z,13.41
2019-02-22T17:44:58.449Z,13.29
2019-02-22T17:47:25.863Z,13.12
2019-02-22T17:49:54.095Z,13.03
2019-02-22T17:52:21.489Z,13.05
2019-02-22T17:54:48.967Z,13.10
2019-02-22T17:57:16.446Z,13.08
2019-02-22T17:59:43.872Z,13.04
2019-02-22T18:02:11.561Z,13.02
2019-02-22T18:04:38.954Z,12.97
2019-02-22T18:07:06.556Z,12.90
2019-02-22T18:09:34.125Z,12.89
2019-02-22T18:12:01.537Z,12.93
2019-02-22T18:14:28.994Z,12.91
2019-02-22T18:16:56.438Z,12.90
2019-02-22T18:19:23.883Z,12.85
2019-02-22T18:21:51.290Z,12.81
2019-02-22T18:24:18.747Z,12.75
2019-02-22T18:26:46.243Z,12.72
2019-02-22T18:29:13.682Z,12.63
2019-02-22T18:31:42.374Z,12.59
2019-02-22T18:34:08.514Z,12.57
2019-02-22T18:36:35.951Z,12.56
2019-02-22T18:39:05.357Z,12.52
2019-02-22T18:41:32.825Z,12.45
2019-02-22T18:44:00.272Z,12.40
2019-02-22T18:46:27.693Z,12.41
2019-02-22T18:48:55.115Z,12.49
2019-02-22T18:51:22.745Z,12.57
2019-02-22T18:53:50.206Z,12.59
2019-02-22T18:56:17.624Z,12.60
2019-02-22T18:58:45.045Z,12.59
2019-02-22T19:01:12.472Z,12.53
2019-02-22T19:03:39.919Z,12.50
2019-02-22T19:06:07.383Z,12.40
2019-02-22T19:08:34.871Z,12.21
2019-02-22T19:11:02.273Z,12.00
2019-02-22T19:13:29.703Z,11.93
2019-02-22T19:15:57.311Z,11.87
2019-02-22T19:18:24.702Z,11.83
2019-02-22T19:20:52.710Z,11.77
2019-02-22T19:23:20.159Z,11.79
2019-02-22T19:25:47.608Z,11.78
2019-02-22T19:28:15.019Z,11.80
2019-02-22T19:30:42.451Z,11.80
2019-02-22T19:33:09.864Z,11.83
2019-02-22T19:35:37.403Z,11.89
2019-02-22T19:38:04.840Z,11.93
2019-02-22T19:40:32.259Z,11.97
2019-02-22T19:42:59.658Z,12.03
2019-02-22T19:45:27.062Z,12.07
2019-02-22T19:47:54.825Z,12.06
2019-02-22T19:50:22.406Z,12.08
2019-02-22T19:52:49.884Z,12.06
2019-02-22T19:55:17.467Z,12.01
2019-02-22T19:57:45.007Z,12.05
2019-02-22T20:00:13.176Z,12.09
2019-02-22T20:02:40.582Z,12.11
2019-02-22T20:05:08.019Z,12.14
2019-02-22T20:07:35.455Z,12.20
2019-02-22T20:10:03.011Z,12.25
2019-02-22T20:12:30.415Z,12.27
2019-02-22T20:14:57.854Z,12.25
2019-02-22T20:17:25.392Z,12.21
2019-02-22T20:19:53.373Z,12.20
2019-02-22T20:22:20.969Z,12.15
2019-02-22T20:24:48.574Z,12.07
2019-02-22T20:27:15.971Z,12.04
2019-02-22T20:29:43.406Z,12.03
2019-02-22T20:32:10.808Z,12.01
2019-02-22T20:34:38.385Z,11.92
2019-02-22T20:37:05.903Z,11.78
2019-02-22T20:39:33.332Z,11.78
2019-02-22T20:42:00.759Z,11.85
2019-02-22T20:44:28.230Z,11.79
2019-02-22T20:46:55.641Z,11.80
2019-02-22T20:49:23.856Z,11.87
2019-02-22T20:51:51.299Z,11.91
2019-02-22T20:54:18.717Z,11.93
2019-02-22T20:56:46.137Z,11.96
2019-02-22T20:59:13.799Z,11.93
2019-02-22T21:01:41.198Z,11.92
2019-02-22T21:04:08.907Z,11.91
2019-02-22T21:06:36.991Z,11.86
2019-02-22T21:09:04.398Z,11.85
2019-02-22T21:11:31.852Z,11.88
2019-02-22T21:13:59.271Z,11.80
2019-02-22T21:16:26.721Z,11.81
2019-02-22T21:18:54.195Z,11.85
2019-02-22T21:21:22.879Z,11.92
2019-02-22T21:23:52.059Z,11.91
2019-02-22T21:26:17.780Z,11.89
2019-02-22T21:28:45.263Z,11.97
2019-02-22T21:31:12.675Z,11.97
2019-02-22T21:33:40.188Z,11.95
2019-02-22T21:36:07.616Z,11.88
2019-02-22T21:38:35.091Z,11.79
2019-02-22T21:41:02.539Z,11.71
2019-02-22T21:43:33.966Z,11.62
2019-02-22T21:46:01.475Z,11.56
2019-02-22T21:48:28.957Z,11.57
2019-02-22T21:50:56.378Z,11.57
2019-02-22T21:53:25.265Z,11.59
2019-02-22T21:55:52.299Z,11.65
2019-02-22T21:58:19.738Z,11.66
2019-02-22T22:00:47.197Z,11.69
2019-02-22T22:03:14.904Z,11.67
2019-02-22T22:05:42.519Z,11.65
2019-02-22T22:08:10.116Z,11.60
2019-02-22T22:10:37.538Z,11.58
2019-02-22T22:13:04.980Z,11.56
2019-02-22T22:15:32.484Z,11.49
2019-02-22T22:17:59.998Z,11.42
2019-02-22T22:20:27.481Z,11.28
2019-02-22T22:22:54.988Z,11.18
2019-02-22T22:25:22.594Z,11.18
2019-02-22T22:27:50.156Z,11.15
2019-02-22T22:30:17.595Z,11.23
2019-02-22T22:32:45.064Z,11.25
2019-02-22T22:35:13.442Z,11.28
2019-02-22T22:37:40.878Z,11.36
2019-02-22T22:40:09.265Z,11.43
2019-02-22T22:42:36.713Z,11.55
2019-02-22T22:45:05.999Z,11.53
2019-02-22T22:47:31.765Z,11.47
2019-02-22T22:49:59.097Z,11.57
2019-02-22T22:52:26.567Z,11.55
2019-02-22T22:54:53.974Z,11.53
2019-02-22T22:57:21.375Z,11.49
2019-02-22T22:59:48.792Z,11.31
2019-02-22T23:02:16.357Z,11.29
2019-02-22T23:04:44.269Z,11.32
2019-02-22T23:07:11.691Z,11.33
2019-02-22T23:09:39.099Z,11.19
2019-02-22T23:12:06.531Z,11.15
2019-02-22T23:14:33.935Z,11.11
2019-02-22T23:17:01.357Z,10.96
2019-02-22T23:19:28.872Z,10.87
2019-02-22T23:21:56.279Z,10.86
2019-02-22T23:24:23.732Z,10.80
2019-02-22T23:26:51.251Z,10.72
2019-02-22T23:29:18.651Z,10.74
2019-02-22T23:31:46.376Z,10.73
2019-02-22T23:34:13.814Z,10.73
2019-02-22T23:36:41.351Z,10.74
2019-02-22T23:39:08.760Z,10.71
2019-02-22T23:41:36.327Z,10.71
2019-02-22T23:44:03.827Z,10.76
2019-02-22T23:46:31.221Z,10.71
2019-02-22T23:48:58.631Z,10.71
2019-02-22T23:51:26.038Z,10.66
2019-02-22T23:53:53.958Z,10.62
2019-02-22T23:56:21.355Z,10.57
2019-02-22T23:58:49.140Z,10.56
